Time;durP1;ratioP1;P1;durP2;ratioP2;P2;SDS_P1;SDS_P2;PMS_P1;PMS_P2;Temp;Humidity;BMP_temperature;BMP_pressure;BME280_temperature;BME280_humidity;BME280_pressure;Samples;Min_cycle;Max_cycle;Signal;HPM_P1;HPM_P2
2022/11/30 00:01:09;;;;;;;4.70;4.30;;;;;;;7.20;100.00;96751.72;5053973;28;20265;-65
2022/11/30 00:03:35;;;;;;;4.53;4.20;;;;;;;7.21;100.00;96752.56;5054305;28;20208;-65
2022/11/30 00:06:04;;;;;;;5.13;4.73;;;;;;;7.26;100.00;96755.69;5065970;28;20206;-66
2022/11/30 00:08:33;;;;;;;5.00;4.60;;;;;;;7.26;100.00;96745.97;5057900;28;20225;-65
2022/11/30 00:10:59;;;;;;;4.87;4.47;;;;;;;7.19;100.00;96749.25;5058219;28;20207;-65
2022/11/30 00:13:26;;;;;;;5.00;4.60;;;;;;;7.21;100.00;96752.56;5064641;28;20199;-66
2022/11/30 00:15:52;;;;;;;5.03;4.57;;;;;;;7.22;100.00;96749.00;5058154;28;20550;-64
2022/11/30 00:18:19;;;;;;;4.63;4.30;;;;;;;7.20;100.00;96748.25;5063134;28;20211;-65
2022/11/30 00:20:45;;;;;;;4.50;4.10;;;;;;;7.22;100.00;96743.75;5062956;28;20207;-66
2022/11/30 00:23:12;;;;;;;4.30;3.93;;;;;;;7.17;100.00;96745.88;5091130;28;20289;-65
2022/11/30 00:25:40;;;;;;;4.33;4.00;;;;;;;7.19;100.00;96744.78;5072856;28;20217;-65
2022/11/30 00:28:06;;;;;;;4.50;4.20;;;;;;;7.23;100.00;96742.75;5065159;28;20202;-64
2022/11/30 00:30:33;;;;;;;4.70;4.30;;;;;;;7.21;100.00;96742.06;5058087;28;20199;-65
2022/11/30 00:33:00;;;;;;;4.90;4.40;;;;;;;7.16;100.00;96739.78;5057798;28;20219;-64
2022/11/30 00:35:26;;;;;;;4.90;4.50;;;;;;;7.17;100.00;96743.25;5066459;28;20211;-65
2022/11/30 00:37:53;;;;;;;5.10;4.70;;;;;;;7.13;100.00;96749.69;5072751;28;20209;-65
2022/11/30 00:40:19;;;;;;;4.73;4.33;;;;;;;7.18;100.00;96742.28;5057535;28;20279;-65
2022/11/30 00:42:47;;;;;;;5.43;4.93;;;;;;;7.20;100.00;96745.63;5057714;28;20620;-65
2022/11/30 00:45:13;;;;;;;5.33;4.83;;;;;;;7.17;100.00;96737.97;5057471;28;20203;-66
2022/11/30 00:47:40;;;;;;;5.53;5.03;;;;;;;7.20;100.00;96741.22;5057528;28;20214;-65
2022/11/30 00:50:08;;;;;;;5.00;4.60;;;;;;;7.20;100.00;96743.00;5056603;28;20213;-65
2022/11/30 00:52:34;;;;;;;5.60;5.10;;;;;;;7.21;100.00;96742.06;5057415;28;20237;-65
2022/11/30 00:55:00;;;;;;;5.37;4.97;;;;;;;7.18;100.00;96747.56;5060945;28;20214;-65
2022/11/30 00:57:27;;;;;;;5.10;4.70;;;;;;;7.12;100.00;96748.03;5070796;28;20218;-65
2022/11/30 00:59:55;;;;;;;5.13;4.73;;;;;;;7.16;100.00;96752.09;5056859;28;20231;-65
2022/11/30 01:02:21;;;;;;;5.23;4.83;;;;;;;7.15;100.00;96750.44;5057081;28;20218;-66
2022/11/30 01:04:48;;;;;;;5.97;5.37;;;;;;;7.15;100.00;96753.06;5056494;28;20211;-65
2022/11/30 01:07:14;;;;;;;5.73;5.23;;;;;;;7.14;100.00;96751.38;5056972;28;20277;-65
2022/11/30 01:09:41;;;;;;;5.93;5.50;;;;;;;7.12;100.00;96753.31;5065945;28;20225;-65
2022/11/30 01:12:07;;;;;;;5.33;4.83;;;;;;;7.15;100.00;96751.28;5059415;28;20235;-65
2022/11/30 01:14:34;;;;;;;5.97;5.40;;;;;;;7.14;100.00;96751.38;5058312;28;20203;-66
2022/11/30 01:17:02;;;;;;;5.20;4.80;;;;;;;7.15;100.00;96747.81;5075130;28;20221;-66
2022/11/30 01:19:28;;;;;;;6.30;5.70;;;;;;;7.17;100.00;96754.59;5058979;28;20227;-66
2022/11/30 01:21:55;;;;;;;6.40;5.00;;;;;;;7.12;100.00;96743.59;5056344;28;20214;-65
2022/11/30 01:24:21;;;;;;;5.87;5.37;;;;;;;7.08;100.00;96751.88;5056857;28;20546;-65
2022/11/30 01:26:48;;;;;;;5.73;5.33;;;;;;;7.11;100.00;96755.09;5059596;28;20203;-65
2022/11/30 01:29:14;;;;;;;5.80;5.40;;;;;;;7.09;100.00;96754.34;5064592;28;20547;-66
2022/11/30 01:31:41;;;;;;;6.27;5.77;;;;;;;7.12;100.00;96753.31;5056380;28;20202;-65
2022/11/30 01:34:09;;;;;;;6.20;5.70;;;;;;;7.12;100.00;96756.75;5056267;28;20207;-66
2022/11/30 01:36:37;;;;;;;5.93;5.43;;;;;;;7.14;100.00;96756.63;5068658;28;20227;-65
2022/11/30 01:39:07;;;;;;;6.40;5.60;;;;;;;7.09;100.00;96754.34;5065451;28;20238;-64
2022/11/30 01:41:34;;;;;;;5.50;5.10;;;;;;;7.13;100.00;96755.78;5057636;28;20280;-66
2022/11/30 01:44:49;;;;;;;6.40;5.90;;;;;;;7.13;100.00;96754.94;5065688;28;20202;-66
2022/11/30 01:47:18;;;;;;;5.57;5.13;;;;;;;7.09;100.00;96761.41;4990357;28;20197;-65
2022/11/30 01:49:48;;;;;;;6.20;5.70;;;;;;;7.04;100.00;96759.16;4996991;28;20205;-66
2022/11/30 01:52:17;;;;;;;5.70;5.20;;;;;;;7.04;100.00;96761.78;5029680;28;20546;-66
2022/11/30 01:54:46;;;;;;;5.87;5.37;;;;;;;7.07;100.00;96760.69;5056353;28;20612;-66
2022/11/30 01:57:15;;;;;;;6.23;5.73;;;;;;;7.05;100.00;96762.63;5057067;28;20203;-65
2022/11/30 01:59:41;;;;;;;5.63;5.20;;;;;;;7.00;100.00;96758.56;5057924;28;20230;-66
2022/11/30 02:02:08;;;;;;;5.43;5.03;;;;;;;7.03;100.00;96757.47;5057274;28;20222;-65
2022/11/30 02:04:36;;;;;;;5.57;5.07;;;;;;;7.00;100.00;96755.09;5061099;28;20203;-67
2022/11/30 02:07:06;;;;;;;5.63;5.23;;;;;;;6.99;100.00;96756.88;5059919;28;20214;-65
2022/11/30 02:09:35;;;;;;;5.53;5.13;;;;;;;6.95;100.00;96757.22;5067328;28;20198;-65
2022/11/30 02:12:03;;;;;;;5.53;5.13;;;;;;;6.98;100.00;96765.69;5058018;28;20207;-65
2022/11/30 02:14:33;;;;;;;5.23;4.83;;;;;;;6.93;100.00;96761.75;5055687;28;20211;-66
2022/11/30 02:17:06;;;;;;;5.27;4.77;;;;;;;7.00;100.00;96761.19;5065967;28;20207;-65
2022/11/30 02:20:11;;;;;;;5.10;4.70;;;;;;;7.03;100.00;96756.63;5055652;28;20219;-65
2022/11/30 02:22:57;;;;;;;5.57;5.03;;;;;;;6.96;100.00;96762.38;5055426;28;20226;-65
2022/11/30 02:25:27;;;;;;;5.33;4.93;;;;;;;6.96;100.00;96759.75;5055188;28;20213;-65
2022/11/30 02:28:10;;;;;;;5.60;5.00;;;;;;;7.00;100.00;96762.97;5055338;28;20334;-65
2022/11/30 02:30:42;;;;;;;5.73;5.23;;;;;;;7.05;100.00;96762.63;5055344;28;20285;-65
2022/11/30 02:33:10;;;;;;;5.90;5.40;;;;;;;7.07;100.00;96765.97;5056459;28;20531;-66
2022/11/30 02:35:40;;;;;;;6.13;5.63;;;;;;;7.06;100.00;96766.91;5057279;28;20242;-65
2022/11/30 02:38:06;;;;;;;6.00;5.50;;;;;;;7.05;100.00;96762.63;5056665;28;20203;-65
2022/11/30 02:40:33;;;;;;;5.83;5.43;;;;;;;7.05;100.00;96763.44;5056737;28;20227;-65
2022/11/30 02:43:03;;;;;;;6.93;6.40;;;;;;;7.05;100.00;96767.88;5064756;28;20627;-65
2022/11/30 02:45:33;;;;;;;7.20;6.60;;;;;;;6.99;100.00;96762.13;5069438;28;20535;-64
2022/11/30 02:48:05;;;;;;;6.87;6.37;;;;;;;6.99;100.00;96759.50;5055486;28;20514;-65
2022/11/30 02:50:37;;;;;;;6.57;6.03;;;;;;;7.04;100.00;96761.78;5082214;28;20229;-66
2022/11/30 02:53:03;;;;;;;6.57;6.07;;;;;;;7.08;100.00;96762.38;5077515;28;20196;-67
2022/11/30 02:55:30;;;;;;;6.70;6.20;;;;;;;7.07;100.00;96758.06;5068257;28;20617;-66
2022/11/30 02:57:57;;;;;;;7.13;6.53;;;;;;;7.07;100.00;96761.53;5056784;28;20612;-65
2022/11/30 03:00:24;;;;;;;6.53;6.03;;;;;;;7.09;100.00;96764.03;5055049;28;20238;-65
2022/11/30 03:02:50;;;;;;;7.20;6.60;;;;;;;7.04;100.00;96763.56;5054960;28;20211;-65
2022/11/30 03:05:18;;;;;;;7.10;6.50;;;;;;;7.06;100.00;96767.75;5054381;28;20205;-66
2022/11/30 03:07:45;;;;;;;7.97;7.17;;;;;;;7.06;100.00;96770.38;5056485;28;20203;-64
2022/11/30 03:10:11;;;;;;;7.63;6.93;;;;;;;7.03;100.00;96773.25;5059446;28;20535;-65
2022/11/30 03:12:38;;;;;;;7.97;7.17;;;;;;;7.01;100.00;96762.84;5054600;28;20210;-65
2022/11/30 03:15:05;;;;;;;8.20;7.43;;;;;;;7.06;100.00;96767.75;5054454;28;20517;-65
2022/11/30 03:17:32;;;;;;;9.17;7.87;;;;;;;7.08;100.00;96768.47;5065402;28;20218;-65
2022/11/30 03:19:58;;;;;;;8.27;7.57;;;;;;;7.09;100.00;96769.28;5054097;28;20233;-64
2022/11/30 03:22:26;;;;;;;8.43;7.60;;;;;;;7.09;100.00;96770.13;5054574;28;20207;-65
2022/11/30 03:24:53;;;;;;;8.20;7.50;;;;;;;7.05;100.00;96767.88;5054292;28;20294;-65
2022/11/30 03:27:20;;;;;;;8.20;7.40;;;;;;;7.11;100.00;96767.41;5054312;28;20207;-64
2022/11/30 03:29:46;;;;;;;8.77;7.97;;;;;;;7.13;100.00;96774.19;5054137;28;20259;-65
2022/11/30 03:32:13;;;;;;;9.27;8.33;;;;;;;7.11;100.00;96762.13;5054475;28;20195;-65
2022/11/30 03:34:39;;;;;;;8.60;7.90;;;;;;;7.12;100.00;96769.09;5054035;28;20207;-65
2022/11/30 03:37:06;;;;;;;8.60;7.90;;;;;;;7.04;100.00;96767.03;5058546;28;20231;-65
2022/11/30 03:39:34;;;;;;;8.23;7.53;;;;;;;7.08;100.00;96770.28;5054219;28;20206;-65
2022/11/30 03:42:00;;;;;;;8.30;7.60;;;;;;;7.06;100.00;96764.28;5057001;28;20213;-66
2022/11/30 03:44:28;;;;;;;8.40;7.70;;;;;;;7.12;100.00;96774.34;5078451;28;20202;-65
2022/11/30 03:46:55;;;;;;;9.40;8.50;;;;;;;7.08;100.00;96772.91;5067264;28;20210;-65
2022/11/30 03:49:21;;;;;;;9.57;8.67;;;;;;;7.10;100.00;96773.59;5058601;28;20211;-64
2022/11/30 03:51:48;;;;;;;8.70;8.00;;;;;;;7.07;100.00;96773.84;5057781;28;20229;-64
2022/11/30 03:54:14;;;;;;;8.50;7.70;;;;;;;7.02;100.00;96768.94;5058505;28;20225;-64
2022/11/30 03:56:44;;;;;;;8.83;8.03;;;;;;;7.06;100.00;96774.78;5064438;28;20548;-65
2022/11/30 03:59:11;;;;;;;8.53;7.73;;;;;;;7.05;100.00;96773.13;5059997;28;20207;-65
2022/11/30 04:01:39;;;;;;;9.57;8.77;;;;;;;7.09;100.00;96764.03;5059842;28;20230;-65
2022/11/30 04:04:06;;;;;;;8.70;7.93;;;;;;;7.05;100.00;96770.50;5061617;28;20210;-65
2022/11/30 04:06:33;;;;;;;9.17;8.37;;;;;;;7.07;100.00;96765.97;5059493;28;20213;-65
2022/11/30 04:08:59;;;;;;;8.80;8.03;;;;;;;7.05;100.00;96773.94;5059467;28;20207;-65
2022/11/30 04:11:26;;;;;;;8.70;7.90;;;;;;;7.01;100.00;96772.53;5059752;28;20218;-65
2022/11/30 04:13:54;;;;;;;8.60;7.90;;;;;;;6.98;100.00;96773.59;5069270;28;20214;-66
2022/11/30 04:16:20;;;;;;;8.23;7.53;;;;;;;7.01;100.00;96772.53;5058679;28;20232;-65
2022/11/30 04:18:47;;;;;;;8.77;8.07;;;;;;;7.02;100.00;96768.94;5058510;28;20214;-65
2022/11/30 04:21:14;;;;;;;8.27;7.57;;;;;;;6.98;100.00;96770.97;5058887;28;20259;-64
2022/11/30 04:23:40;;;;;;;8.23;7.53;;;;;;;7.00;100.00;96769.06;5059951;28;20211;-65
2022/11/30 04:26:08;;;;;;;8.07;7.37;;;;;;;7.01;100.00;96770.72;5060294;28;20225;-65
2022/11/30 04:28:35;;;;;;;8.33;7.53;;;;;;;6.97;100.00;96764.06;5061942;28;20207;-65
2022/11/30 04:31:03;;;;;;;7.70;7.00;;;;;;;7.01;100.00;96772.53;5063816;28;20225;-65
2022/11/30 04:33:30;;;;;;;7.33;6.73;;;;;;;6.95;100.00;96763.31;5078695;28;20229;-66
2022/11/30 04:35:58;;;;;;;7.17;6.57;;;;;;;6.91;100.00;96764.50;5089439;28;20257;-66
2022/11/30 04:38:26;;;;;;;7.83;7.13;;;;;;;6.98;100.00;96772.75;5083229;28;20201;-66
2022/11/30 04:40:54;;;;;;;7.80;7.20;;;;;;;6.95;100.00;96768.56;5082451;28;20313;-65
2022/11/30 04:43:20;;;;;;;6.90;6.30;;;;;;;6.91;100.00;96767.13;5083890;28;20207;-66
2022/11/30 04:45:47;;;;;;;7.67;7.03;;;;;;;6.97;100.00;96771.94;5068170;28;20206;-65
2022/11/30 04:48:16;;;;;;;7.43;6.83;;;;;;;6.91;100.00;96769.75;5060617;28;20226;-65
2022/11/30 04:50:42;;;;;;;7.03;6.53;;;;;;;6.94;100.00;96772.16;5058839;28;20211;-65
2022/11/30 04:53:09;;;;;;;6.83;6.33;;;;;;;6.90;100.00;96765.47;5068620;28;20207;-65
2022/11/30 04:55:38;;;;;;;7.67;6.97;;;;;;;6.88;100.00;96766.53;5056970;28;20210;-65
2022/11/30 04:58:05;;;;;;;7.83;7.13;;;;;;;6.89;100.00;96763.78;5057087;28;20298;-65
2022/11/30 05:00:32;;;;;;;7.13;6.53;;;;;;;6.86;100.00;96763.19;5056921;28;20238;-65
2022/11/30 05:02:59;;;;;;;7.50;6.80;;;;;;;6.85;100.00;96762.34;5062677;28;20643;-65
2022/11/30 05:05:27;;;;;;;7.83;6.87;;;;;;;6.83;100.00;96769.53;5060281;28;20345;-65
2022/11/30 05:07:55;;;;;;;7.87;7.27;;;;;;;6.81;100.00;96766.16;5056689;28;20543;-65
2022/11/30 05:10:22;;;;;;;7.67;6.87;;;;;;;6.80;100.00;96772.38;5056649;28;20211;-65
2022/11/30 05:12:49;;;;;;;7.80;7.10;;;;;;;6.77;100.00;96769.97;5056513;28;20217;-65
2022/11/30 05:15:15;;;;;;;7.97;7.33;;;;;;;6.78;100.00;96768.19;5057580;28;20238;-65
2022/11/30 05:17:42;;;;;;;8.23;7.53;;;;;;;6.77;100.00;96769.97;5069666;28;20267;-66
2022/11/30 05:20:09;;;;;;;10.17;7.30;;;;;;;6.83;100.00;96779.19;5077780;28;20229;-66
2022/11/30 05:22:37;;;;;;;8.10;7.40;;;;;;;6.79;100.00;96778.59;5076962;28;20217;-66
2022/11/30 05:25:04;;;;;;;7.97;7.27;;;;;;;6.83;100.00;96769.53;5068108;28;20238;-66
2022/11/30 05:27:31;;;;;;;8.30;7.60;;;;;;;6.83;100.00;96769.53;5058883;28;20203;-65
2022/11/30 05:29:57;;;;;;;8.40;7.77;;;;;;;6.80;100.00;96775.00;5056941;28;20211;-66
2022/11/30 05:32:24;;;;;;;8.60;7.90;;;;;;;6.86;100.00;96774.53;5057077;28;20552;-65
2022/11/30 05:34:50;;;;;;;9.43;8.57;;;;;;;6.84;100.00;96775.59;5055954;28;20226;-67
2022/11/30 05:37:17;;;;;;;8.40;7.70;;;;;;;6.86;100.00;96769.28;5061067;28;20235;-65
2022/11/30 05:39:45;;;;;;;8.73;7.93;;;;;;;6.86;100.00;96768.44;5055897;28;20234;-66
2022/11/30 05:42:12;;;;;;;8.87;8.07;;;;;;;6.82;100.00;96772.25;5056982;28;20234;-65
2022/11/30 05:44:38;;;;;;;8.87;8.17;;;;;;;6.81;100.00;96775.84;5061129;28;20646;-65
2022/11/30 05:47:05;;;;;;;9.30;8.50;;;;;;;6.82;100.00;96777.50;5056275;28;20203;-65
2022/11/30 05:49:32;;;;;;;9.23;8.43;;;;;;;6.84;100.00;96770.34;5056406;28;20543;-65
2022/11/30 05:51:58;;;;;;;9.07;8.37;;;;;;;6.84;100.00;96771.19;5055610;28;20620;-65
2022/11/30 05:54:25;;;;;;;9.53;8.63;;;;;;;6.81;100.00;96773.19;5081628;28;20203;-66
2022/11/30 05:56:53;;;;;;;8.30;7.60;;;;;;;6.85;100.00;96770.22;5080540;28;20190;-65
2022/11/30 05:59:24;;;;;;;8.93;8.20;;;;;;;6.80;100.00;96780.25;5061603;28;20207;-66
2022/11/30 06:01:52;;;;;;;10.00;9.13;;;;;;;6.83;100.00;96773.94;5055406;28;20710;-67
2022/11/30 06:04:18;;;;;;;9.30;8.47;;;;;;;6.81;100.00;96776.69;5056665;28;20621;-67
2022/11/30 06:06:45;;;;;;;8.53;7.83;;;;;;;6.82;100.00;96778.34;5055584;28;20207;-65
2022/11/30 06:09:11;;;;;;;9.33;8.53;;;;;;;6.83;100.00;96779.19;5069466;28;20230;-65
2022/11/30 06:11:40;;;;;;;8.70;7.97;;;;;;;6.81;100.00;96766.16;5066066;28;20213;-67
2022/11/30 06:14:08;;;;;;;8.60;8.00;;;;;;;6.84;100.00;96765.06;5082759;28;20191;-62
2022/11/30 06:16:35;;;;;;;8.70;8.00;;;;;;;6.77;100.00;96780.47;5080981;28;20204;-67
2022/11/30 06:19:02;;;;;;;9.80;8.90;;;;;;;6.74;100.00;96779.88;5059250;28;20199;-66
2022/11/30 06:21:28;;;;;;;8.97;8.17;;;;;;;6.73;100.00;96773.78;5061955;28;20264;-68
2022/11/30 06:23:55;;;;;;;9.80;8.80;;;;;;;6.77;100.00;96769.97;5060941;28;20203;-66
2022/11/30 06:26:22;;;;;;;9.00;8.20;;;;;;;6.75;100.00;96771.06;5060826;28;20217;-66
2022/11/30 06:28:48;;;;;;;12.83;9.10;;;;;;;6.77;100.00;96780.47;5064516;28;20218;-67
2022/11/30 06:31:16;;;;;;;8.83;8.03;;;;;;;6.77;100.00;96775.22;5062886;28;20202;-63
2022/11/30 06:33:43;;;;;;;10.23;9.27;;;;;;;6.76;100.00;96778.84;5056009;28;20199;-65
2022/11/30 06:36:10;;;;;;;9.57;8.67;;;;;;;6.77;100.00;96774.38;5062417;28;20226;-64
2022/11/30 06:38:37;;;;;;;8.67;7.87;;;;;;;6.79;100.00;96778.59;5059477;28;20532;-66
2022/11/30 06:41:07;;;;;;;9.43;8.60;;;;;;;6.81;100.00;96779.31;5060447;28;20222;-65
2022/11/30 06:43:35;;;;;;;9.73;8.80;;;;;;;6.79;100.00;96775.13;5065218;28;20192;-66
2022/11/30 06:46:02;;;;;;;9.37;8.57;;;;;;;6.78;100.00;96784.78;5068394;28;20204;-67
2022/11/30 06:48:31;;;;;;;10.17;9.23;;;;;;;6.80;100.00;96782.06;5059649;28;20207;-66
2022/11/30 06:50:59;;;;;;;14.47;9.27;;;;;;;6.76;100.00;96789.34;5057625;28;20214;-62
2022/11/30 06:53:26;;;;;;;10.17;9.17;;;;;;;6.76;100.00;96783.25;5065739;28;20284;-62
2022/11/30 06:55:52;;;;;;;11.10;10.00;;;;;;;6.75;100.00;96782.41;5055623;28;20221;-62
2022/11/30 06:58:20;;;;;;;13.03;10.17;;;;;;;6.78;100.00;96787.44;5062254;28;20203;-62
2022/11/30 07:00:48;;;;;;;12.17;10.37;;;;;;;6.81;100.00;96789.81;5062246;28;20230;-62
2022/11/30 07:03:15;;;;;;;11.90;10.80;;;;;;;6.82;100.00;96783.63;5054846;28;20221;-61
2022/11/30 07:05:45;;;;;;;12.70;11.40;;;;;;;6.81;100.00;96781.94;5059798;28;20198;-62
2022/11/30 07:08:13;;;;;;;12.40;11.10;;;;;;;6.77;100.00;96780.47;5054459;28;20632;-60
2022/11/30 07:10:41;;;;;;;12.00;10.90;;;;;;;6.80;100.00;96790.75;5058197;28;20274;-61
2022/11/30 07:13:10;;;;;;;12.73;11.53;;;;;;;6.79;100.00;96788.28;5056990;28;20214;-65
2022/11/30 07:15:39;;;;;;;11.63;10.53;;;;;;;6.78;100.00;96786.59;5054226;28;20643;-63
2022/11/30 07:18:06;;;;;;;12.80;11.60;;;;;;;6.75;100.00;96787.66;5053402;28;20209;-63
2022/11/30 07:20:33;;;;;;;12.73;11.53;;;;;;;6.78;100.00;96791.84;5053129;28;20211;-63
2022/11/30 07:26:05;;;;;;;12.50;11.30;;;;;;;6.78;100.00;96799.72;5054043;28;20210;-63
2022/11/30 07:26:05;;;;;;;12.13;11.03;;;;;;;6.80;100.00;96803.91;5066500;28;20199;-63
2022/11/30 07:28:33;;;;;;;13.20;11.90;;;;;;;6.81;100.00;96797.69;5074046;28;20263;-63
2022/11/30 07:31:00;;;;;;;14.40;13.00;;;;;;;6.78;100.00;96795.31;5074347;28;20219;-64
2022/11/30 07:33:26;;;;;;;13.80;12.40;;;;;;;6.74;100.00;96795.66;5077344;28;20263;-64
2022/11/30 07:35:53;;;;;;;14.63;13.13;;;;;;;6.75;100.00;96798.19;5081167;28;20219;-63
2022/11/30 07:38:21;;;;;;;15.73;13.93;;;;;;;6.73;100.00;96794.81;5085233;28;20265;-63
2022/11/30 07:40:47;;;;;;;14.60;13.10;;;;;;;6.71;100.00;96788.84;5080509;28;20213;-63
2022/11/30 07:43:14;;;;;;;16.17;14.33;;;;;;;6.69;100.00;96792.56;5067771;28;20210;-64
2022/11/30 07:45:42;;;;;;;15.33;13.83;;;;;;;6.71;100.00;96780.13;5065462;28;20665;-66
2022/11/30 07:48:09;;;;;;;15.30;13.80;;;;;;;6.74;100.00;96788.59;5065930;28;20209;-63
2022/11/30 07:50:36;;;;;;;14.77;13.23;;;;;;;6.77;100.00;96785.75;5070467;28;20206;-64
2022/11/30 07:53:02;;;;;;;15.33;13.23;;;;;;;6.76;100.00;96791.97;5070959;28;20201;-63
2022/11/30 07:55:31;;;;;;;16.40;13.87;;;;;;;6.75;100.00;96792.06;5071727;28;20233;-63
2022/11/30 07:57:58;;;;;;;15.63;14.13;;;;;;;6.78;100.00;96792.69;5063392;28;20211;-64
2022/11/30 08:00:25;;;;;;;16.03;13.80;;;;;;;6.78;100.00;96803.19;5059031;28;20206;-65
2022/11/30 08:02:51;;;;;;;15.73;14.13;;;;;;;6.80;100.00;96805.72;5057615;28;20249;-64
2022/11/30 08:05:21;;;;;;;15.80;14.07;;;;;;;6.78;100.00;96797.94;5059049;28;20214;-63
2022/11/30 08:07:51;;;;;;;19.50;14.87;;;;;;;6.80;100.00;96809.16;5056481;28;20207;-63
2022/11/30 08:10:18;;;;;;;16.30;14.70;;;;;;;6.82;100.00;96803.81;5055888;28;20207;-63
2022/11/30 08:12:46;;;;;;;15.37;13.87;;;;;;;6.77;100.00;96812.03;5068197;28;20207;-63
2022/11/30 08:15:13;;;;;;;17.80;15.47;;;;;;;6.82;100.00;96804.63;5058625;28;20631;-63
2022/11/30 08:17:40;;;;;;;16.27;14.70;;;;;;;6.80;100.00;96811.78;5055635;28;20546;-63
2022/11/30 08:20:10;;;;;;;15.73;14.10;;;;;;;6.80;100.00;96808.34;5066014;28;20210;-62
2022/11/30 08:22:37;;;;;;;15.43;13.83;;;;;;;6.80;100.00;96805.72;5055812;28;20552;-63
2022/11/30 08:25:04;;;;;;;15.43;13.93;;;;;;;6.77;100.00;96806.75;5061266;28;20207;-63
2022/11/30 08:27:32;;;;;;;15.73;14.20;;;;;;;6.79;100.00;96809.28;5062079;28;20717;-63
2022/11/30 08:30:00;;;;;;;15.47;13.87;;;;;;;6.78;100.00;96812.88;5064497;28;20626;-63
2022/11/30 08:32:27;;;;;;;15.80;14.20;;;;;;;6.74;100.00;96816.66;5058272;28;20203;-63
2022/11/30 08:34:54;;;;;;;16.07;14.37;;;;;;;6.75;100.00;96819.19;5064557;28;20213;-63
2022/11/30 08:37:22;;;;;;;16.10;14.40;;;;;;;6.67;100.00;96821.56;5060842;28;20614;-62
2022/11/30 08:39:50;;;;;;;15.77;14.07;;;;;;;6.71;100.00;96824.78;5063606;28;20222;-63
2022/11/30 08:42:16;;;;;;;15.70;14.07;;;;;;;6.69;100.00;96826.72;5064469;28;20218;-63
2022/11/30 08:44:45;;;;;;;15.67;14.07;;;;;;;6.66;100.00;96822.50;5064667;28;20623;-63
2022/11/30 08:47:13;;;;;;;17.07;15.03;;;;;;;6.68;100.00;96828.50;5062516;28;20225;-62
2022/11/30 08:49:40;;;;;;;17.60;15.53;;;;;;;6.68;100.00;96831.13;5064577;28;20206;-63
2022/11/30 08:52:06;;;;;;;17.63;15.70;;;;;;;6.58;100.00;96835.41;5063321;28;20203;-63
2022/11/30 08:54:33;;;;;;;17.43;15.53;;;;;;;6.60;100.00;96835.25;5064533;28;20202;-64
2022/11/30 08:57:00;;;;;;;19.53;15.87;;;;;;;6.52;100.00;96838.44;5059034;28;20211;-62
2022/11/30 08:59:27;;;;;;;19.37;16.50;;;;;;;6.46;100.00;96838.91;5069890;28;20211;-63
2022/11/30 09:01:55;;;;;;;22.57;17.07;;;;;;;6.43;100.00;96839.16;5058728;28;20693;-63
2022/11/30 09:04:25;;;;;;;18.67;16.47;;;;;;;6.38;100.00;96842.09;5062352;28;20213;-63
2022/11/30 09:06:57;;;;;;;18.90;15.73;;;;;;;6.44;100.00;96844.31;5063786;28;20293;-62
2022/11/30 09:09:25;;;;;;;19.40;16.40;;;;;;;6.39;100.00;96842.94;5064728;28;20199;-63
2022/11/30 09:11:52;;;;;;;20.50;17.20;;;;;;;6.30;100.00;96846.25;5058039;28;20204;-64
2022/11/30 09:14:19;;;;;;;22.90;17.80;;;;;;;6.31;100.00;96850.53;5063650;28;20226;-63
2022/11/30 09:16:45;;;;;;;21.17;17.50;;;;;;;6.35;100.00;96855.47;5057251;28;20211;-62
2022/11/30 09:19:12;;;;;;;21.57;17.23;;;;;;;6.38;100.00;96857.84;5056746;28;20357;-64
2022/11/30 09:21:40;;;;;;;18.67;15.40;;;;;;;6.38;100.00;96852.59;5056496;28;20230;-63
2022/11/30 09:24:07;;;;;;;21.53;16.07;;;;;;;6.42;100.00;96855.84;5056593;28;20207;-63
2022/11/30 09:26:34;;;;;;;21.37;17.70;;;;;;;6.40;100.00;96855.13;5056544;28;20206;-64
2022/11/30 09:29:01;;;;;;;20.77;16.97;;;;;;;6.43;100.00;96855.75;5056428;28;20309;-63
2022/11/30 09:31:29;;;;;;;23.03;18.17;;;;;;;6.42;100.00;96853.22;5056624;28;20875;-62
2022/11/30 09:33:57;;;;;;;21.43;17.50;;;;;;;6.41;100.00;96843.69;5069546;28;20635;-62
2022/11/30 09:36:26;;;;;;;22.93;17.97;;;;;;;6.44;100.00;96854.81;5057159;28;20234;-63
2022/11/30 09:38:54;;;;;;;22.80;17.00;;;;;;;6.45;100.00;96850.38;5056037;28;20517;-63
2022/11/30 09:41:41;;;;;;;22.07;18.07;;;;;;;6.47;100.00;96851.94;5062642;28;20206;-63
2022/11/30 09:44:13;;;;;;;22.03;17.07;;;;;;;6.50;100.00;96851.72;5058781;28;20538;-63
2022/11/30 09:46:43;;;;;;;20.97;17.20;;;;;;;6.47;100.00;96851.94;5061010;28;20206;-63
2022/11/30 09:49:13;;;;;;;20.13;16.47;;;;;;;6.37;100.00;96850.09;5056547;28;20222;-63
2022/11/30 09:51:44;;;;;;;21.90;16.53;;;;;;;6.43;100.00;96853.13;5056182;28;20204;-64
2022/11/30 09:54:14;;;;;;;21.17;17.33;;;;;;;6.37;100.00;96847.47;5056661;28;20214;-62
2022/11/30 09:56:43;;;;;;;20.30;16.17;;;;;;;6.40;100.00;96855.13;5056329;28;20215;-63
2022/11/30 09:59:15;;;;;;;17.93;15.83;;;;;;;6.46;100.00;96844.16;5064916;28;20279;-64
2022/11/30 10:01:43;;;;;;;17.80;15.53;;;;;;;6.50;100.00;96850.88;5070513;28;20222;-63
2022/11/30 10:04:20;;;;;;;19.10;16.23;;;;;;;6.47;100.00;96849.31;5073911;28;20273;-63
2022/11/30 10:06:53;;;;;;;18.33;15.23;;;;;;;6.49;100.00;96839.53;5055718;28;20203;-63
2022/11/30 10:09:32;;;;;;;18.83;14.83;;;;;;;6.55;100.00;96846.13;5056399;28;20203;-62
2022/11/30 10:12:04;;;;;;;19.00;15.87;;;;;;;6.60;100.00;96843.16;5056887;28;20199;-63
2022/11/30 10:15:00;;;;;;;18.03;15.27;;;;;;;6.59;100.00;96844.94;5055761;28;20199;-63
2022/11/30 10:17:35;;;;;;;20.67;14.60;;;;;;;6.61;100.00;96848.31;5060933;28;20206;-64
2022/11/30 10:20:13;;;;;;;19.33;14.37;;;;;;;6.57;100.00;96846.84;5067211;28;20212;-63
2022/11/30 10:22:57;;;;;;;16.90;13.93;;;;;;;6.55;100.00;96848.75;5063882;28;20215;-63
2022/11/30 10:25:31;;;;;;;17.27;14.10;;;;;;;6.46;100.00;96845.00;5066456;28;20214;-63
2022/11/30 10:28:03;;;;;;;19.23;15.77;;;;;;;6.49;100.00;96844.78;5055768;28;20532;-63
2022/11/30 10:30:33;;;;;;;16.83;14.10;;;;;;;6.58;100.00;96843.28;5056179;28;20214;-63
2022/11/30 10:33:05;;;;;;;15.00;13.43;;;;;;;6.49;100.00;96836.06;5061094;28;20218;-63
2022/11/30 10:35:35;;;;;;;15.73;14.00;;;;;;;6.59;100.00;96834.41;5055773;28;20206;-63
2022/11/30 10:38:05;;;;;;;15.27;13.20;;;;;;;6.45;100.00;96838.06;5055863;28;20217;-63
2022/11/30 10:40:37;;;;;;;15.30;12.83;;;;;;;6.53;100.00;96848.03;5055646;28;20222;-63
2022/11/30 10:43:14;;;;;;;14.87;12.40;;;;;;;6.54;100.00;96840.97;5055421;28;20273;-62
2022/11/30 10:45:45;;;;;;;15.70;12.80;;;;;;;6.56;100.00;96845.16;5059453;28;20227;-63
2022/11/30 10:48:16;;;;;;;14.13;12.63;;;;;;;6.54;100.00;96833.94;5055608;28;20210;-63
2022/11/30 10:50:42;;;;;;;13.93;12.13;;;;;;;6.55;100.00;96838.25;5054535;28;20214;-63
2022/11/30 10:53:10;;;;;;;13.27;11.60;;;;;;;6.62;100.00;96838.63;5058879;28;20199;-61
2022/11/30 10:55:42;;;;;;;12.60;11.20;;;;;;;6.62;100.00;96828.97;5055332;28;20206;-63
2022/11/30 10:58:16;;;;;;;15.27;12.50;;;;;;;6.63;100.00;96825.34;5055575;28;20533;-63
2022/11/30 11:00:44;;;;;;;14.87;11.23;;;;;;;6.69;100.00;96824.94;5054932;28;20222;-62
2022/11/30 11:03:23;;;;;;;13.27;10.30;;;;;;;6.74;100.00;96825.41;5054780;28;20230;-63
2022/11/30 11:06:03;;;;;;;11.93;10.33;;;;;;;6.69;100.00;96822.28;5054663;28;20234;-62
2022/11/30 11:08:30;;;;;;;12.53;10.30;;;;;;;6.67;100.00;96821.56;5054921;28;20214;-62
2022/11/30 11:10:58;;;;;;;11.23;10.03;;;;;;;6.78;100.00;96818.97;5054593;28;20214;-62
2022/11/30 11:13:36;;;;;;;11.83;10.50;;;;;;;6.78;100.00;96828.63;5054895;28;20199;-62
2022/11/30 11:16:04;;;;;;;11.73;10.53;;;;;;;6.78;100.00;96818.13;5061346;28;20255;-62
2022/11/30 11:18:31;;;;;;;12.07;10.03;;;;;;;6.79;100.00;96814.56;5054690;28;20203;-64
2022/11/30 11:21:04;;;;;;;11.10;10.00;;;;;;;6.78;100.00;96818.97;5054373;28;20211;-62
2022/11/30 11:23:33;;;;;;;10.97;9.43;;;;;;;6.74;100.00;96817.50;5054895;28;20235;-63
2022/11/30 11:26:03;;;;;;;10.17;9.17;;;;;;;6.76;100.00;96815.63;5054837;28;20207;-62
2022/11/30 11:28:30;;;;;;;10.03;8.63;;;;;;;6.79;100.00;96817.19;5054996;28;20212;-62
2022/11/30 11:30:57;;;;;;;9.83;8.83;;;;;;;6.81;100.00;96817.88;5056583;28;20203;-66
2022/11/30 11:33:25;;;;;;;11.10;9.07;;;;;;;6.82;100.00;96827.47;5056944;28;20207;-63